createdAt,value
2018-05-27T00:02:22.278Z,50.64
2018-05-27T00:04:50.261Z,51.35
2018-05-27T00:07:18.263Z,51.74
2018-05-27T00:09:46.332Z,51.58
2018-05-27T00:12:14.334Z,50.43
2018-05-27T00:14:42.358Z,51.11
2018-05-27T00:17:10.386Z,51.10
2018-05-27T00:19:38.335Z,51.00
2018-05-27T00:22:06.401Z,52.16
2018-05-27T00:24:34.501Z,51.36
2018-05-27T00:27:02.563Z,52.41
2018-05-27T00:29:31.005Z,53.83
2018-05-27T00:31:58.997Z,54.20
2018-05-27T00:34:27.046Z,54.30
2018-05-27T00:36:55.045Z,54.01
2018-05-27T00:39:23.035Z,53.26
2018-05-27T00:41:51.046Z,52.19
2018-05-27T00:44:19.063Z,54.80
2018-05-27T00:46:47.059Z,56.76
2018-05-27T00:49:15.079Z,54.64
2018-05-27T00:51:43.078Z,56.26
2018-05-27T00:54:11.094Z,58.67
2018-05-27T00:56:39.089Z,58.96
2018-05-27T00:59:07.080Z,58.99
2018-05-27T01:01:35.087Z,59.81
2018-05-27T01:04:03.079Z,60.62
2018-05-27T01:06:31.170Z,61.05
2018-05-27T01:08:59.216Z,62.24
2018-05-27T01:11:27.275Z,63.78
2018-05-27T01:13:55.257Z,61.05
2018-05-27T01:16:23.245Z,59.07
2018-05-27T01:18:51.223Z,57.91
2018-05-27T01:21:19.319Z,57.23
2018-05-27T01:23:47.320Z,57.67
2018-05-27T01:26:15.343Z,57.05
2018-05-27T01:28:43.369Z,57.50
2018-05-27T01:31:11.714Z,57.59
2018-05-27T01:33:39.685Z,60.55
2018-05-27T01:36:07.702Z,61.30
2018-05-27T01:38:35.733Z,61.15
2018-05-27T01:41:03.757Z,61.27
2018-05-27T01:43:31.789Z,62.58
2018-05-27T01:45:59.751Z,61.98
2018-05-27T01:48:27.727Z,60.67
2018-05-27T01:50:55.716Z,58.39
2018-05-27T01:53:23.674Z,57.38
2018-05-27T01:55:51.657Z,58.31
2018-05-27T01:58:19.582Z,58.55
2018-05-27T02:00:47.509Z,56.85
2018-05-27T02:03:15.560Z,56.25
2018-05-27T02:05:43.595Z,56.22
2018-05-27T02:08:11.612Z,54.98
2018-05-27T02:10:39.643Z,54.93
2018-05-27T02:13:07.651Z,55.50
2018-05-27T02:15:35.636Z,57.01
2018-05-27T02:18:03.739Z,59.28
2018-05-27T02:20:31.871Z,60.07
2018-05-27T02:22:59.790Z,60.04
2018-05-27T02:25:27.770Z,59.34
2018-05-27T02:27:55.737Z,60.47
2018-05-27T02:30:23.758Z,61.07
2018-05-27T02:32:51.974Z,62.77
2018-05-27T02:35:20.066Z,62.35
2018-05-27T02:37:48.091Z,63.08
2018-05-27T02:40:16.120Z,60.86
2018-05-27T02:42:44.114Z,60.04
2018-05-27T02:45:12.158Z,59.45
2018-05-27T02:47:40.191Z,60.43
2018-05-27T02:50:08.175Z,57.67
2018-05-27T02:52:36.156Z,57.27
2018-05-27T02:55:04.220Z,57.77
2018-05-27T02:57:32.226Z,57.07
2018-05-27T03:00:00.169Z,56.16
2018-05-27T03:02:28.219Z,55.60
2018-05-27T03:04:56.250Z,55.02
2018-05-27T03:07:24.329Z,55.83
2018-05-27T03:09:52.372Z,57.42
2018-05-27T03:12:20.393Z,57.04
2018-05-27T03:14:48.410Z,56.91
2018-05-27T03:17:16.379Z,54.88
2018-05-27T03:19:44.415Z,55.81
2018-05-27T03:22:12.370Z,56.27
2018-05-27T03:24:40.419Z,56.48
2018-05-27T03:27:08.381Z,55.92
2018-05-27T03:29:36.446Z,56.48
2018-05-27T03:32:04.420Z,56.79
2018-05-27T03:34:32.708Z,54.77
2018-05-27T03:37:00.740Z,54.40
2018-05-27T03:39:28.827Z,54.50
2018-05-27T03:41:56.807Z,54.10
2018-05-27T03:44:24.853Z,54.50
2018-05-27T03:46:52.792Z,55.36
2018-05-27T03:49:20.763Z,56.10
2018-05-27T03:51:48.817Z,56.52
2018-05-27T03:54:16.786Z,55.70
2018-05-27T03:56:44.783Z,55.13
2018-05-27T03:59:12.771Z,54.94
2018-05-27T04:01:40.765Z,55.94
2018-05-27T04:04:20.386Z,56.69
2018-05-27T04:07:01.482Z,57.50
2018-05-27T04:09:29.524Z,56.29
2018-05-27T04:11:58.442Z,56.83
2018-05-27T04:14:26.482Z,57.23
2018-05-27T04:16:54.430Z,59.04
2018-05-27T04:19:22.461Z,56.75
2018-05-27T04:21:50.465Z,57.56
2018-05-27T04:27:22.247Z,56.68
2018-05-27T04:29:50.294Z,56.37
2018-05-27T04:32:18.291Z,54.89
2018-05-27T04:34:46.259Z,53.48
2018-05-27T04:37:14.283Z,55.76
2018-05-27T04:39:42.439Z,53.97
2018-05-27T04:42:10.466Z,54.73
2018-05-27T04:44:38.521Z,54.30
2018-05-27T04:47:06.540Z,55.57
2018-05-27T04:49:34.519Z,59.01
2018-05-27T04:52:02.507Z,56.82
2018-05-27T04:54:30.518Z,54.57
2018-05-27T04:56:58.523Z,55.59
2018-05-27T04:59:26.512Z,55.18
2018-05-27T05:01:54.490Z,54.68
2018-05-27T05:04:22.522Z,53.49
2018-05-27T05:06:50.556Z,55.33
2018-05-27T05:09:18.566Z,53.77
2018-05-27T05:11:46.554Z,53.35
2018-05-27T05:14:14.569Z,52.47
2018-05-27T05:16:42.528Z,51.86
2018-05-27T05:19:11.699Z,51.74
2018-05-27T05:21:39.902Z,51.27
2018-05-27T05:24:07.921Z,51.09
2018-05-27T05:26:35.946Z,50.08
2018-05-27T05:29:04.411Z,50.07
2018-05-27T05:31:32.468Z,50.92
2018-05-27T05:34:00.455Z,47.81
2018-05-27T05:36:28.422Z,48.87
2018-05-27T05:38:56.412Z,47.72
2018-05-27T05:41:24.426Z,47.31
2018-05-27T05:43:52.476Z,47.58
2018-05-27T05:46:20.512Z,50.55
2018-05-27T05:48:48.540Z,48.52
2018-05-27T05:51:16.581Z,48.18
2018-05-27T05:53:44.603Z,48.64
2018-05-27T05:56:12.723Z,49.48
2018-05-27T05:58:40.676Z,47.24
2018-05-27T06:01:08.725Z,47.39
2018-05-27T06:03:36.757Z,46.91
2018-05-27T06:06:04.791Z,45.55
2018-05-27T06:08:32.835Z,44.17
2018-05-27T06:11:00.794Z,46.02
2018-05-27T06:13:28.791Z,44.83
2018-05-27T06:15:56.804Z,42.34
2018-05-27T06:18:24.812Z,41.15
2018-05-27T06:20:52.869Z,39.79
2018-05-27T06:23:21.026Z,40.40
2018-05-27T06:25:49.109Z,38.64
2018-05-27T06:28:17.147Z,37.88
2018-05-27T06:30:45.519Z,37.30
2018-05-27T06:33:13.596Z,39.41
2018-05-27T06:35:41.640Z,37.12
2018-05-27T06:38:09.783Z,37.03
2018-05-27T06:40:37.839Z,38.65
2018-05-27T06:43:05.792Z,37.33
2018-05-27T06:45:33.822Z,38.75
2018-05-27T06:48:01.814Z,39.01
2018-05-27T06:50:30.095Z,38.96
2018-05-27T06:52:58.048Z,37.35
2018-05-27T06:55:26.036Z,38.82
2018-05-27T06:57:54.068Z,38.91
2018-05-27T07:00:22.065Z,36.38
2018-05-27T07:02:50.013Z,35.38
2018-05-27T07:05:18.207Z,35.99
2018-05-27T07:07:46.191Z,36.21
2018-05-27T07:10:14.281Z,35.94
2018-05-27T07:12:42.276Z,34.21
2018-05-27T07:15:10.309Z,34.14
2018-05-27T07:17:38.359Z,34.54
2018-05-27T07:20:06.393Z,34.68
2018-05-27T07:22:34.437Z,35.81
2018-05-27T07:25:02.453Z,34.53
2018-05-27T07:27:30.451Z,33.35
2018-05-27T07:29:58.486Z,34.92
2018-05-27T07:32:27.089Z,35.60
2018-05-27T07:34:55.143Z,36.56
2018-05-27T07:37:23.174Z,33.17
2018-05-27T07:39:51.242Z,34.62
2018-05-27T07:42:19.282Z,32.06
2018-05-27T07:44:47.319Z,34.15
2018-05-27T07:47:15.347Z,30.72
2018-05-27T07:49:43.412Z,32.62
2018-05-27T07:52:11.407Z,30.18
2018-05-27T07:54:39.444Z,31.40
2018-05-27T07:57:07.426Z,31.01
2018-05-27T07:59:35.484Z,30.74
2018-05-27T08:02:03.611Z,32.58
2018-05-27T08:04:31.615Z,29.08
2018-05-27T08:06:59.669Z,28.61
2018-05-27T08:09:27.658Z,30.27
2018-05-27T08:11:55.681Z,28.47
2018-05-27T08:14:23.655Z,27.61
2018-05-27T08:16:51.644Z,27.61
2018-05-27T08:19:19.543Z,27.92
2018-05-27T08:21:47.516Z,28.92
2018-05-27T08:24:15.692Z,26.58
2018-05-27T08:26:43.625Z,27.96
2018-05-27T08:29:11.605Z,26.64
2018-05-27T08:31:39.656Z,26.05
2018-05-27T08:34:08.135Z,26.25
2018-05-27T08:36:36.149Z,26.18
2018-05-27T08:39:04.365Z,27.64
2018-05-27T08:41:32.296Z,26.94
2018-05-27T08:44:00.305Z,25.27
2018-05-27T08:46:28.529Z,26.22
2018-05-27T08:48:56.572Z,27.04
2018-05-27T08:51:24.555Z,24.20
2018-05-27T08:53:52.488Z,25.48
2018-05-27T08:56:20.536Z,24.91
2018-05-27T08:58:48.519Z,24.31
2018-05-27T09:01:16.721Z,26.16
2018-05-27T09:03:44.734Z,25.04
2018-05-27T09:06:12.725Z,23.78
2018-05-27T09:08:40.719Z,24.62
2018-05-27T09:11:08.755Z,24.15
2018-05-27T09:13:36.770Z,24.37
2018-05-27T09:16:04.811Z,22.52
2018-05-27T09:18:32.830Z,21.42
2018-05-27T09:21:00.837Z,24.30
2018-05-27T09:23:28.835Z,24.29
2018-05-27T09:25:56.915Z,24.88
2018-05-27T09:28:24.986Z,25.37
2018-05-27T09:30:52.977Z,25.89
2018-05-27T09:33:21.057Z,24.64
2018-05-27T09:35:49.402Z,26.24
2018-05-27T09:38:17.388Z,27.77
2018-05-27T09:40:45.385Z,26.40
2018-05-27T09:43:13.346Z,24.62
2018-05-27T09:45:41.380Z,24.25
2018-05-27T09:48:09.530Z,25.73
2018-05-27T09:50:37.589Z,24.33
2018-05-27T09:53:05.602Z,21.08
2018-05-27T09:55:33.639Z,21.70
2018-05-27T09:58:01.687Z,23.73
2018-05-27T10:00:29.632Z,23.21
2018-05-27T10:02:57.674Z,25.05
2018-05-27T10:05:25.705Z,24.88
2018-05-27T10:07:53.705Z,25.11
2018-05-27T10:10:21.703Z,25.50
2018-05-27T10:12:49.938Z,25.11
2018-05-27T10:15:17.965Z,24.57
2018-05-27T10:17:45.975Z,25.40
2018-05-27T10:20:14.015Z,24.46
2018-05-27T10:22:42.004Z,25.23
2018-05-27T10:25:10.025Z,27.34
2018-05-27T10:27:38.006Z,27.54
2018-05-27T10:30:06.075Z,25.39
2018-05-27T10:32:34.073Z,23.20
2018-05-27T10:35:02.040Z,19.92
2018-05-27T10:37:30.533Z,22.79
2018-05-27T10:39:58.563Z,22.63
2018-05-27T10:42:26.588Z,22.45
2018-05-27T10:44:54.618Z,22.18
2018-05-27T10:47:22.557Z,21.97
2018-05-27T10:49:50.505Z,23.10
2018-05-27T10:52:18.446Z,24.63
2018-05-27T10:54:46.406Z,22.69
2018-05-27T10:57:14.423Z,22.95
2018-05-27T10:59:42.482Z,22.39
2018-05-27T11:02:10.500Z,22.44
2018-05-27T11:04:38.551Z,22.39
2018-05-27T11:07:06.580Z,22.10
2018-05-27T11:09:34.686Z,21.76
2018-05-27T11:12:02.654Z,21.67
2018-05-27T11:14:30.632Z,22.70
2018-05-27T11:16:58.690Z,23.64
2018-05-27T11:19:26.716Z,23.52
2018-05-27T11:21:54.740Z,22.72
2018-05-27T11:24:22.737Z,22.10
2018-05-27T11:26:50.763Z,21.69
2018-05-27T11:29:18.752Z,22.27
2018-05-27T11:31:46.707Z,20.61
2018-05-27T11:34:14.729Z,19.93
2018-05-27T11:36:42.680Z,20.92
2018-05-27T11:39:10.975Z,20.93
2018-05-27T11:41:38.999Z,21.08
2018-05-27T11:44:06.985Z,20.09
2018-05-27T11:46:34.986Z,21.54
2018-05-27T11:49:03.083Z,22.04
2018-05-27T11:51:31.106Z,21.99
2018-05-27T11:53:59.093Z,22.12
2018-05-27T11:56:27.108Z,23.26
2018-05-27T11:58:55.109Z,22.71
2018-05-27T12:01:23.098Z,23.57
2018-05-27T12:03:51.135Z,23.70
2018-05-27T12:06:19.127Z,22.69
2018-05-27T12:08:47.177Z,21.71
2018-05-27T12:11:15.364Z,22.17
2018-05-27T12:13:43.376Z,19.29
2018-05-27T12:16:11.570Z,20.24
2018-05-27T12:18:39.880Z,19.37
2018-05-27T12:21:08.456Z,20.93
2018-05-27T12:23:36.852Z,20.25
2018-05-27T12:26:05.240Z,18.86
2018-05-27T12:28:34.007Z,21.40
2018-05-27T12:31:02.796Z,19.68
2018-05-27T12:33:31.498Z,19.63
2018-05-27T12:35:59.969Z,20.44
2018-05-27T12:38:28.330Z,20.82
2018-05-27T12:40:56.920Z,20.74
2018-05-27T12:43:25.286Z,21.18
2018-05-27T12:45:53.625Z,20.69
2018-05-27T12:48:22.069Z,20.09
2018-05-27T12:50:50.942Z,20.83
2018-05-27T12:53:19.435Z,23.00
2018-05-27T12:55:48.122Z,21.22
2018-05-27T12:58:16.208Z,22.63
2018-05-27T13:00:44.191Z,23.08
2018-05-27T13:03:12.181Z,24.31
2018-05-27T13:05:40.193Z,24.57
2018-05-27T13:08:08.213Z,25.33
2018-05-27T13:10:36.297Z,25.46
2018-05-27T13:13:04.326Z,24.83
2018-05-27T13:15:32.352Z,25.52
2018-05-27T13:18:00.377Z,25.40
2018-05-27T13:20:28.378Z,25.38
2018-05-27T13:22:56.390Z,25.95
2018-05-27T13:25:24.363Z,24.41
2018-05-27T13:27:52.478Z,25.75
2018-05-27T13:30:20.450Z,24.75
2018-05-27T13:32:48.450Z,25.05
2018-05-27T13:35:16.489Z,24.36
2018-05-27T13:37:44.555Z,25.78
2018-05-27T13:40:12.609Z,25.40
2018-05-27T13:42:40.688Z,25.15
2018-05-27T13:45:08.744Z,23.29
2018-05-27T13:47:36.724Z,25.25
2018-05-27T13:50:04.834Z,26.34
2018-05-27T13:52:32.805Z,26.58
2018-05-27T13:55:00.846Z,26.91
2018-05-27T13:57:28.833Z,26.72
2018-05-27T13:59:56.807Z,27.17
2018-05-27T14:02:24.803Z,27.40
2018-05-27T14:04:52.740Z,27.29
2018-05-27T14:07:20.814Z,27.08
2018-05-27T14:09:48.741Z,27.36
2018-05-27T14:12:16.745Z,26.96
2018-05-27T14:14:44.749Z,27.48
2018-05-27T14:17:12.734Z,27.61
2018-05-27T14:19:40.789Z,27.84
2018-05-27T14:22:08.778Z,28.14
2018-05-27T14:24:36.758Z,27.94
2018-05-27T14:27:04.797Z,27.61
2018-05-27T14:29:32.919Z,28.09
2018-05-27T14:32:00.910Z,27.43
2018-05-27T14:34:29.055Z,28.48
2018-05-27T14:36:57.014Z,29.20
2018-05-27T14:39:24.993Z,29.18
2018-05-27T14:41:53.025Z,30.04
2018-05-27T14:44:21.170Z,29.87
2018-05-27T14:46:49.193Z,31.30
2018-05-27T14:49:17.210Z,33.19
2018-05-27T14:51:45.258Z,36.76
2018-05-27T14:54:13.254Z,37.25
2018-05-27T14:56:41.304Z,35.49
2018-05-27T14:59:09.357Z,35.40
2018-05-27T15:01:37.416Z,34.97
2018-05-27T15:04:05.477Z,36.43
2018-05-27T15:06:33.564Z,36.48
2018-05-27T15:09:01.638Z,35.82
2018-05-27T15:11:29.645Z,36.38
2018-05-27T15:13:57.760Z,36.25
2018-05-27T15:16:25.787Z,37.14
2018-05-27T15:18:53.819Z,36.24
2018-05-27T15:21:21.818Z,36.72
2018-05-27T15:23:49.816Z,35.97
2018-05-27T15:26:17.859Z,35.32
2018-05-27T15:28:45.862Z,36.50
2018-05-27T15:31:13.904Z,36.30
2018-05-27T15:33:41.935Z,36.82
2018-05-27T15:36:09.943Z,38.41
2018-05-27T15:38:37.942Z,38.79
2018-05-27T15:41:05.981Z,37.41
2018-05-27T15:43:34.169Z,36.24
2018-05-27T15:46:02.674Z,35.96
2018-05-27T15:48:30.763Z,36.33
2018-05-27T15:50:58.793Z,38.16
2018-05-27T15:53:27.405Z,39.37
2018-05-27T15:55:55.457Z,41.54
2018-05-27T15:58:23.665Z,41.62
2018-05-27T16:00:51.649Z,41.08
2018-05-27T16:03:19.687Z,40.16
2018-05-27T16:05:47.702Z,40.42
2018-05-27T16:08:15.737Z,38.69
2018-05-27T16:10:43.766Z,39.06
2018-05-27T16:13:12.102Z,38.32
2018-05-27T16:15:40.171Z,37.59
2018-05-27T16:18:08.250Z,36.87
2018-05-27T16:20:36.245Z,36.09
2018-05-27T16:23:04.319Z,34.61
2018-05-27T16:25:32.366Z,34.04
2018-05-27T16:28:00.495Z,34.42
2018-05-27T16:30:28.497Z,34.19
2018-05-27T16:32:56.575Z,34.69
2018-05-27T16:35:24.628Z,34.85
2018-05-27T16:37:52.662Z,34.53
2018-05-27T16:40:20.736Z,34.59
2018-05-27T16:42:48.721Z,34.56
2018-05-27T16:45:16.902Z,34.67
2018-05-27T16:47:45.453Z,36.39
2018-05-27T16:50:13.904Z,36.12
2018-05-27T16:52:42.010Z,35.64
2018-05-27T16:55:09.983Z,37.04
2018-05-27T16:57:38.446Z,37.03
2018-05-27T17:00:06.513Z,35.90
2018-05-27T17:02:34.599Z,35.54
2018-05-27T17:05:02.639Z,36.13
2018-05-27T17:07:30.632Z,36.31
2018-05-27T17:09:58.697Z,38.86
2018-05-27T17:12:26.702Z,39.64
2018-05-27T17:14:54.812Z,40.67
2018-05-27T17:17:22.854Z,40.22
2018-05-27T17:19:50.870Z,39.29
2018-05-27T17:22:18.862Z,39.78
2018-05-27T17:24:46.876Z,39.27
2018-05-27T17:27:14.833Z,41.15
2018-05-27T17:29:42.848Z,41.92
2018-05-27T17:32:10.862Z,42.77
2018-05-27T17:34:38.878Z,42.00
2018-05-27T17:37:06.855Z,41.02
2018-05-27T17:39:34.938Z,40.32
2018-05-27T17:42:03.003Z,40.18
2018-05-27T17:44:32.078Z,40.34
2018-05-27T17:47:00.113Z,38.53
2018-05-27T17:49:28.453Z,37.53
2018-05-27T17:51:56.436Z,40.58
2018-05-27T17:54:24.553Z,43.61
2018-05-27T17:56:52.535Z,42.98
2018-05-27T17:59:20.520Z,43.72
2018-05-27T18:01:48.468Z,44.54
2018-05-27T18:04:16.561Z,44.22
2018-05-27T18:06:44.600Z,45.46
2018-05-27T18:09:12.599Z,47.09
2018-05-27T18:11:40.626Z,45.85
2018-05-27T18:14:08.636Z,45.38
2018-05-27T18:16:36.676Z,43.98
2018-05-27T18:19:04.677Z,44.46
2018-05-27T18:21:32.674Z,44.76
2018-05-27T18:24:00.684Z,44.16
2018-05-27T18:26:28.615Z,47.07
2018-05-27T18:28:56.679Z,44.34
2018-05-27T18:31:24.682Z,45.59
2018-05-27T18:33:52.708Z,46.92
2018-05-27T18:36:20.803Z,46.79
2018-05-27T18:38:48.910Z,46.84
2018-05-27T18:41:17.006Z,45.53
2018-05-27T18:43:45.007Z,43.27
2018-05-27T18:46:13.094Z,42.97
2018-05-27T18:48:41.187Z,43.09
2018-05-27T18:51:09.503Z,42.36
2018-05-27T18:53:37.549Z,43.60
2018-05-27T18:56:05.539Z,43.16
2018-05-27T18:58:33.579Z,43.02
2018-05-27T19:01:01.595Z,43.99
2018-05-27T19:03:29.710Z,43.92
2018-05-27T19:05:57.809Z,44.86
2018-05-27T19:08:25.863Z,44.24
2018-05-27T19:10:53.949Z,44.18
2018-05-27T19:13:21.929Z,45.39
2018-05-27T19:15:50.293Z,45.23
2018-05-27T19:18:18.401Z,45.35
2018-05-27T19:20:46.438Z,46.46
2018-05-27T19:23:14.401Z,47.39
2018-05-27T19:25:42.636Z,47.62
2018-05-27T19:28:10.681Z,48.20
2018-05-27T19:30:38.704Z,48.77
2018-05-27T19:33:06.781Z,47.75
2018-05-27T19:35:34.861Z,49.19
2018-05-27T19:38:02.863Z,47.95
2018-05-27T19:40:30.828Z,46.78
2018-05-27T19:42:58.814Z,47.64
2018-05-27T19:45:26.833Z,48.78
2018-05-27T19:47:54.859Z,49.43
2018-05-27T19:50:22.849Z,49.32
2018-05-27T19:52:51.158Z,47.82
2018-05-27T19:55:19.183Z,47.15
2018-05-27T19:57:47.192Z,46.89
2018-05-27T20:00:15.183Z,47.75
2018-05-27T20:02:43.159Z,47.86
2018-05-27T20:05:11.140Z,46.79
2018-05-27T20:07:39.178Z,47.08
2018-05-27T20:10:07.223Z,47.08
2018-05-27T20:12:35.229Z,46.69
2018-05-27T20:15:03.373Z,47.79
2018-05-27T20:17:31.412Z,48.24
2018-05-27T20:19:59.447Z,50.11
2018-05-27T20:22:27.463Z,50.70
2018-05-27T20:24:55.500Z,48.83
2018-05-27T20:27:23.498Z,48.44
2018-05-27T20:29:51.505Z,47.58
2018-05-27T20:32:19.481Z,46.96
2018-05-27T20:34:47.475Z,46.74
2018-05-27T20:37:15.524Z,48.02
2018-05-27T20:39:44.506Z,48.67
2018-05-27T20:42:12.534Z,48.16
2018-05-27T20:44:40.615Z,48.42
2018-05-27T20:47:08.853Z,47.68
2018-05-27T20:49:36.866Z,47.93
2018-05-27T20:52:04.912Z,48.38
2018-05-27T20:54:33.219Z,47.53
2018-05-27T20:57:01.761Z,47.21
2018-05-27T20:59:29.743Z,47.08
2018-05-27T21:01:57.825Z,47.97
2018-05-27T21:04:25.869Z,48.53
2018-05-27T21:06:53.918Z,48.57
2018-05-27T21:09:21.969Z,48.44
2018-05-27T21:11:49.974Z,48.13
2018-05-27T21:14:17.991Z,49.30
2018-05-27T21:16:46.041Z,49.73
2018-05-27T21:19:13.959Z,49.16
2018-05-27T21:21:42.023Z,48.36
2018-05-27T21:24:10.040Z,48.21
2018-05-27T21:26:38.029Z,47.77
2018-05-27T21:29:06.009Z,49.85
2018-05-27T21:31:34.264Z,52.12
2018-05-27T21:34:02.382Z,51.50
2018-05-27T21:36:30.453Z,51.44
2018-05-27T21:38:58.518Z,51.66
2018-05-27T21:41:26.778Z,49.74
2018-05-27T21:43:54.833Z,50.79
2018-05-27T21:46:23.304Z,50.01
2018-05-27T21:48:51.350Z,51.26
2018-05-27T21:51:19.386Z,50.06
2018-05-27T21:53:47.389Z,51.71
2018-05-27T21:56:15.567Z,52.63
2018-05-27T21:58:43.919Z,51.77
2018-05-27T22:01:12.379Z,50.90
2018-05-27T22:03:41.279Z,51.47
2018-05-27T22:06:09.309Z,52.49
2018-05-27T22:08:37.438Z,53.38
2018-05-27T22:11:05.534Z,52.90
2018-05-27T22:13:33.569Z,53.63
2018-05-27T22:16:02.166Z,52.58
2018-05-27T22:18:30.176Z,53.05
2018-05-27T22:20:58.203Z,51.46
2018-05-27T22:23:26.167Z,51.25
2018-05-27T22:25:54.235Z,50.12
2018-05-27T22:28:22.266Z,52.63
2018-05-27T22:30:50.261Z,50.63
2018-05-27T22:33:18.298Z,50.91
2018-05-27T22:35:46.921Z,49.91
2018-05-27T22:38:14.932Z,49.84
2018-05-27T22:40:42.948Z,49.54
2018-05-27T22:43:10.946Z,49.61
2018-05-27T22:45:39.317Z,50.37
2018-05-27T22:48:07.336Z,49.58
2018-05-27T22:50:36.176Z,48.81
2018-05-27T22:53:04.349Z,51.22
2018-05-27T22:55:32.292Z,50.73
2018-05-27T22:58:00.745Z,51.50
2018-05-27T23:00:28.843Z,52.68
2018-05-27T23:02:56.833Z,51.88
2018-05-27T23:05:25.461Z,53.09
2018-05-27T23:07:53.424Z,52.42
2018-05-27T23:10:21.450Z,51.89
2018-05-27T23:12:49.450Z,51.03
2018-05-27T23:15:17.459Z,51.03
2018-05-27T23:17:45.576Z,50.54
2018-05-27T23:20:13.578Z,51.51
2018-05-27T23:22:41.477Z,52.86
2018-05-27T23:25:09.407Z,52.67
2018-05-27T23:27:37.418Z,52.41
2018-05-27T23:30:05.553Z,51.83
2018-05-27T23:32:33.511Z,51.99
2018-05-27T23:35:01.463Z,55.95
2018-05-27T23:37:29.497Z,56.78
2018-05-27T23:39:57.494Z,57.31
2018-05-27T23:42:25.554Z,56.38
2018-05-27T23:44:53.577Z,54.80
2018-05-27T23:47:21.547Z,55.85
2018-05-27T23:49:49.568Z,54.99
2018-05-27T23:52:17.597Z,55.04
2018-05-27T23:54:45.571Z,56.49
2018-05-27T23:57:13.612Z,56.83
2018-05-27T23:59:42.009Z,56.60
